Time;durP1;ratioP1;P1;durP2;ratioP2;P2;SDS_P1;SDS_P2;PMS_P1;PMS_P2;Temp;Humidity;BMP_temperature;BMP_pressure;BME280_temperature;BME280_humidity;BME280_pressure;Samples;Min_cycle;Max_cycle;Signal;HPM_P1;HPM_P2
2024/04/07 00:01:35;;;;;;;2.33;1.20;;;;;;;15.81;78.49;100552.34;5024826;28;20033;-74
2024/04/07 00:04:04;;;;;;;4.47;1.67;;;;;;;15.80;78.48;100552.53;5022062;28;20041;-73
2024/04/07 00:06:31;;;;;;;5.72;1.50;;;;;;;15.79;79.02;100564.00;5026209;28;20059;-74
2024/04/07 00:08:57;;;;;;;3.30;1.48;;;;;;;15.77;79.55;100556.34;5025538;28;20485;-74
2024/04/07 00:11:23;;;;;;;5.30;1.42;;;;;;;15.75;80.01;100545.28;5031164;28;20020;-74
2024/04/07 00:13:49;;;;;;;1.88;1.25;;;;;;;15.76;80.33;100560.78;5027839;28;20411;-74
2024/04/07 00:16:14;;;;;;;2.95;1.27;;;;;;;15.73;80.37;100553.31;5025669;28;20523;-73
2024/04/07 00:18:40;;;;;;;3.58;1.27;;;;;;;15.71;80.49;100551.88;5027201;28;20528;-73
2024/04/07 00:21:05;;;;;;;3.55;1.40;;;;;;;15.63;80.24;100555.44;5026497;28;20643;-74
2024/04/07 00:23:32;;;;;;;4.60;1.67;;;;;;;15.61;80.82;100554.03;5038703;28;20033;-73
2024/04/07 00:25:58;;;;;;;4.40;1.40;;;;;;;15.56;80.99;100547.59;5029187;28;20500;-73
2024/04/07 00:28:23;;;;;;;4.78;1.92;;;;;;;15.53;80.60;100544.56;5023507;28;20034;-73
2024/04/07 00:30:49;;;;;;;4.60;1.40;;;;;;;15.49;80.93;100561.63;5025318;28;20037;-74
2024/04/07 00:33:15;;;;;;;6.70;1.60;;;;;;;15.45;81.35;100563.81;5029915;28;20474;-73
2024/04/07 00:35:52;;;;;;;5.65;1.58;;;;;;;15.40;81.94;100578.47;5036962;28;20036;-73
2024/04/07 00:38:17;;;;;;;4.63;1.17;;;;;;;15.37;82.67;100583.06;5036621;28;20122;-74
2024/04/07 00:40:43;;;;;;;5.30;1.50;;;;;;;15.36;83.54;100594.50;5037942;28;20472;-73
2024/04/07 00:43:08;;;;;;;5.35;1.70;;;;;;;15.35;84.22;100600.75;5036419;28;20599;-74
2024/04/07 00:45:35;;;;;;;3.65;1.60;;;;;;;15.33;84.36;100605.38;5031829;28;20499;-73
2024/04/07 00:48:00;;;;;;;4.93;1.38;;;;;;;15.32;84.91;100608.16;5038685;28;20436;-73
2024/04/07 00:50:26;;;;;;;8.52;1.55;;;;;;;15.32;85.44;100616.00;5031094;28;20049;-74
2024/04/07 00:52:53;;;;;;;5.85;1.67;;;;;;;15.33;84.65;100604.53;5039880;28;20030;-74
2024/04/07 00:55:19;;;;;;;10.85;2.45;;;;;;;15.33;81.72;100600.16;5031806;28;20069;-73
2024/04/07 00:57:44;;;;;;;7.93;1.40;;;;;;;15.31;81.56;100601.31;5013565;28;20088;-73
2024/04/07 01:00:10;;;;;;;7.40;1.67;;;;;;;15.32;79.84;100606.34;5034050;28;20052;-74
2024/04/07 01:02:36;;;;;;;6.72;1.73;;;;;;;15.38;78.77;100613.41;5030579;28;20698;-73
2024/04/07 01:05:01;;;;;;;3.03;1.35;;;;;;;15.42;78.40;100628.72;5039735;28;20162;-74
2024/04/07 01:07:27;;;;;;;4.75;1.80;;;;;;;15.41;78.36;100632.31;5033804;28;20042;-74
2024/04/07 01:09:54;;;;;;;6.32;1.58;;;;;;;15.45;76.80;100625.72;5036701;28;20029;-74
2024/04/07 01:12:20;;;;;;;5.90;1.35;;;;;;;15.51;76.51;100635.41;5026337;28;20099;-74
2024/04/07 01:14:54;;;;;;;8.40;1.63;;;;;;;15.65;69.84;100634.50;5032505;28;20492;-74
2024/04/07 01:17:20;;;;;;;7.18;1.38;;;;;;;15.83;65.47;100614.88;5033750;28;20030;-73
2024/04/07 01:19:45;;;;;;;5.93;1.30;;;;;;;15.84;65.87;100617.31;5029723;28;21554;-74
2024/04/07 01:22:13;;;;;;;8.15;1.30;;;;;;;16.03;64.21;100625.41;5031625;28;20044;-74
2024/04/07 01:24:38;;;;;;;6.72;1.27;;;;;;;16.20;62.23;100642.38;5034401;28;20041;-75
2024/04/07 01:27:04;;;;;;;6.05;1.30;;;;;;;16.48;60.70;100665.81;5036069;28;20068;-74
2024/04/07 01:29:29;;;;;;;4.38;1.30;;;;;;;16.79;59.94;100685.38;5013216;28;20041;-74
2024/04/07 01:31:55;;;;;;;7.90;1.35;;;;;;;16.73;60.05;100675.72;5024197;28;20036;-73
2024/04/07 01:34:20;;;;;;;12.02;1.27;;;;;;;16.91;59.61;100688.22;5033271;28;20026;-73
2024/04/07 01:36:47;;;;;;;7.80;1.20;;;;;;;16.98;59.22;100696.91;5037196;28;20029;-74
2024/04/07 01:39:13;;;;;;;12.13;1.45;;;;;;;17.12;58.00;100692.47;5023302;28;20030;-74
2024/04/07 01:41:38;;;;;;;4.05;0.90;;;;;;;17.01;58.66;100698.31;5032025;28;20548;-73
2024/04/07 01:44:04;;;;;;;10.18;1.40;;;;;;;16.99;59.03;100709.00;5031190;28;20492;-73
2024/04/07 01:46:29;;;;;;;7.75;1.30;;;;;;;17.12;59.19;100737.00;5036794;28;20037;-74
2024/04/07 01:48:55;;;;;;;9.68;1.63;;;;;;;17.19;59.42;100708.19;5034775;28;20044;-74
2024/04/07 01:51:20;;;;;;;4.70;1.42;;;;;;;17.25;58.59;100708.22;5031372;28;20033;-73
2024/04/07 01:53:45;;;;;;;8.00;1.50;;;;;;;17.28;59.53;100723.50;5028825;28;20045;-74
2024/04/07 01:56:11;;;;;;;6.00;1.30;;;;;;;17.18;59.51;100735.41;5029306;28;20080;-73
2024/04/07 01:59:26;;;;;;;7.93;1.40;;;;;;;17.22;60.24;100761.00;5032424;28;20034;-74
2024/04/07 02:01:52;;;;;;;8.77;1.30;;;;;;;17.17;61.02;100744.28;5028951;28;20091;-74
2024/04/07 02:04:17;;;;;;;5.70;1.33;;;;;;;17.20;61.45;100764.84;5035126;28;20025;-74
2024/04/07 02:06:43;;;;;;;7.20;1.90;;;;;;;17.15;62.85;100770.66;5041082;28;20075;-74
2024/04/07 02:09:09;;;;;;;5.75;1.42;;;;;;;17.12;62.35;100771.88;5032020;28;20105;-73
2024/04/07 02:11:34;;;;;;;10.70;1.80;;;;;;;17.23;62.81;100798.50;5016831;28;20026;-74
2024/04/07 02:14:00;;;;;;;13.68;1.50;;;;;;;17.25;62.87;100796.47;5031627;28;20061;-73
2024/04/07 02:16:26;;;;;;;6.25;1.63;;;;;;;17.21;63.62;100788.19;5017648;28;20033;-74
2024/04/07 02:18:52;;;;;;;9.95;1.63;;;;;;;17.17;63.99;100817.63;5018531;28;20116;-74
2024/04/07 02:21:17;;;;;;;9.48;1.75;;;;;;;17.25;64.54;100813.03;5029556;28;20456;-74
2024/04/07 02:23:43;;;;;;;9.75;2.00;;;;;;;17.25;64.84;100827.91;5033571;28;20542;-74
2024/04/07 02:26:08;;;;;;;15.63;3.40;;;;;;;17.24;65.78;100831.56;5031956;28;20711;-73
2024/04/07 02:28:33;;;;;;;10.70;1.83;;;;;;;17.18;66.19;100834.94;5040443;28;20103;-73
2024/04/07 02:30:59;;;;;;;3.53;1.40;;;;;;;17.25;66.53;100844.47;5033977;28;20033;-73
2024/04/07 02:33:25;;;;;;;12.00;2.63;;;;;;;17.08;67.64;100843.19;5036068;28;20057;-74
2024/04/07 02:35:57;;;;;;;10.90;1.75;;;;;;;17.22;68.11;100865.00;5032906;28;20499;-74
2024/04/07 02:38:22;;;;;;;7.50;1.58;;;;;;;17.07;69.00;100870.41;5022755;28;20033;-74
2024/04/07 02:40:47;;;;;;;11.02;1.90;;;;;;;17.14;69.04;100871.25;5019340;28;20037;-74
2024/04/07 02:43:13;;;;;;;11.00;1.85;;;;;;;17.08;69.86;100872.00;5031602;28;20041;-74
2024/04/07 02:48:23;;;;;;;10.38;1.73;;;;;;;17.09;70.46;100891.97;5043065;28;20152;-74
2024/04/07 02:50:48;;;;;;;11.57;1.65;;;;;;;16.95;71.37;100906.00;5029089;28;20033;-74
2024/04/07 02:53:14;;;;;;;9.85;1.52;;;;;;;16.95;71.26;100900.78;5033910;28;20038;-74
2024/04/07 02:55:39;;;;;;;10.93;2.05;;;;;;;17.10;70.51;100911.91;5031904;28;20037;-73
2024/04/07 02:58:05;;;;;;;13.18;1.80;;;;;;;17.06;70.72;100911.50;5036115;28;20100;-74
2024/04/07 03:00:31;;;;;;;15.30;1.90;;;;;;;16.97;71.31;100912.69;5030068;28;20025;-74
2024/04/07 03:02:56;;;;;;;13.93;1.95;;;;;;;16.91;72.17;100916.06;5010666;28;20033;-73
2024/04/07 03:05:22;;;;;;;16.23;2.50;;;;;;;16.88;72.75;100919.09;5028949;28;20033;-74
2024/04/07 03:07:51;;;;;;;6.13;1.70;;;;;;;16.78;73.52;100932.50;5026893;28;20036;-73
2024/04/07 03:10:18;;;;;;;13.10;1.73;;;;;;;16.87;73.71;100933.19;5027345;28;20029;-74
2024/04/07 03:12:44;;;;;;;9.27;1.80;;;;;;;16.79;73.71;100933.31;5031033;28;20049;-74
2024/04/07 03:15:10;;;;;;;10.48;1.63;;;;;;;16.82;73.75;100911.97;5030804;28;20017;-74
2024/04/07 03:17:35;;;;;;;8.57;1.95;;;;;;;16.85;73.38;100920.28;5029528;28;21746;-74
2024/04/07 03:20:03;;;;;;;12.50;2.13;;;;;;;16.84;74.05;100931.78;5025169;28;20036;-74
2024/04/07 03:22:29;;;;;;;11.48;2.72;;;;;;;16.90;73.33;100943.28;5020305;28;20044;-74
2024/04/07 03:24:54;;;;;;;9.93;1.70;;;;;;;16.87;73.58;100954.94;5028051;28;20029;-74
2024/04/07 03:27:19;;;;;;;10.05;2.03;;;;;;;16.76;74.35;100986.06;5023328;28;20034;-74
2024/04/07 03:29:46;;;;;;;11.82;2.17;;;;;;;16.80;73.86;100985.50;5014217;28;20063;-73
2024/04/07 03:32:11;;;;;;;11.75;2.40;;;;;;;16.67;74.59;100990.63;5022968;28;20037;-73
2024/04/07 03:34:37;;;;;;;9.88;1.88;;;;;;;16.66;74.71;100991.66;5034495;28;20044;-73
2024/04/07 03:37:04;;;;;;;8.57;1.73;;;;;;;16.55;75.54;101013.91;5031345;28;20511;-74
2024/04/07 03:39:30;;;;;;;8.25;1.90;;;;;;;16.58;75.93;101023.22;5026477;28;20079;-74
2024/04/07 03:41:56;;;;;;;7.10;2.22;;;;;;;16.56;76.05;101028.63;5024137;28;20041;-73
2024/04/07 03:44:21;;;;;;;5.93;1.77;;;;;;;16.47;76.39;101021.91;5032283;28;20075;-74
2024/04/07 03:46:48;;;;;;;6.82;1.52;;;;;;;16.43;77.07;101011.00;5028969;28;20087;-73
2024/04/07 03:49:14;;;;;;;7.03;1.95;;;;;;;16.38;77.58;101017.81;5025975;28;20120;-73
2024/04/07 03:51:39;;;;;;;10.65;1.98;;;;;;;16.30;78.31;100998.63;5023307;28;20128;-73
2024/04/07 03:54:05;;;;;;;9.38;1.45;;;;;;;16.23;78.58;100976.03;5022632;28;20079;-73
2024/04/07 03:56:30;;;;;;;8.23;1.75;;;;;;;16.18;79.01;100981.00;5030062;28;20459;-73
2024/04/07 03:58:56;;;;;;;5.63;1.27;;;;;;;16.14;79.24;100993.66;5030228;28;20029;-73
2024/04/07 04:01:22;;;;;;;4.78;1.65;;;;;;;16.11;79.49;101007.13;5030134;28;20029;-74
2024/04/07 04:03:47;;;;;;;10.27;1.90;;;;;;;16.09;79.89;101028.22;5029985;28;20172;-73
2024/04/07 04:06:13;;;;;;;6.45;1.60;;;;;;;16.08;80.51;101034.44;5037859;28;20037;-73
2024/04/07 04:08:38;;;;;;;11.18;2.00;;;;;;;16.06;82.05;101038.25;5046785;28;20049;-73
2024/04/07 04:11:06;;;;;;;13.18;2.20;;;;;;;15.95;82.51;101018.63;5036622;28;20026;-73
2024/04/07 04:13:35;;;;;;;14.60;2.03;;;;;;;15.97;81.74;100980.00;5030428;28;20412;-73
2024/04/07 04:16:00;;;;;;;10.52;2.03;;;;;;;15.95;82.12;100969.75;5030163;28;20042;-74
2024/04/07 04:18:26;;;;;;;11.65;2.03;;;;;;;15.90;82.24;100976.56;5028876;28;20036;-73
2024/04/07 04:20:51;;;;;;;4.38;1.63;;;;;;;15.94;81.70;100993.47;5029688;28;20041;-73
2024/04/07 04:23:17;;;;;;;7.07;1.60;;;;;;;15.92;81.81;101047.78;5024103;28;20041;-74
2024/04/07 04:25:55;;;;;;;14.30;3.03;;;;;;;16.01;80.41;101062.34;5029894;28;20091;-74
2024/04/07 04:28:21;;;;;;;4.10;1.42;;;;;;;15.93;80.82;101078.94;5027649;28;20029;-73
2024/04/07 04:30:58;;;;;;;7.75;1.90;;;;;;;15.93;80.91;101075.53;5031787;28;20507;-74
2024/04/07 04:33:25;;;;;;;6.75;1.90;;;;;;;15.86;81.63;101077.25;5040889;28;20037;-73
2024/04/07 04:35:51;;;;;;;7.53;2.47;;;;;;;15.80;82.65;101099.72;5031206;28;20054;-74
2024/04/07 04:38:16;;;;;;;6.32;1.52;;;;;;;15.80;82.91;101091.88;5029057;28;20052;-75
2024/04/07 04:40:55;;;;;;;9.75;1.70;;;;;;;15.75;82.99;101091.63;5034973;28;20102;-75
2024/04/07 04:43:22;;;;;;;7.63;1.60;;;;;;;15.75;82.40;101089.81;5029099;28;20037;-73
2024/04/07 04:46:13;;;;;;;8.07;1.50;;;;;;;15.71;81.81;101080.69;5028497;28;20056;-73
2024/04/07 04:48:39;;;;;;;6.68;1.33;;;;;;;15.68;81.60;101077.63;5010427;28;20096;-73
2024/04/07 04:51:04;;;;;;;7.78;1.58;;;;;;;15.67;81.01;101071.59;5034208;28;20037;-74
2024/04/07 04:53:30;;;;;;;10.38;1.50;;;;;;;15.71;80.91;101069.44;5029375;28;20052;-74
2024/04/07 04:56:01;;;;;;;7.10;1.35;;;;;;;15.70;80.91;101059.97;5021708;28;20044;-73
2024/04/07 04:58:27;;;;;;;3.40;1.42;;;;;;;15.73;80.44;101065.66;5025570;28;20029;-73
2024/04/07 05:00:53;;;;;;;7.18;1.70;;;;;;;15.64;80.91;101056.28;5036779;28;20029;-73
2024/04/07 05:03:18;;;;;;;5.88;1.77;;;;;;;15.67;80.71;101057.69;5028322;28;20060;-73
2024/04/07 05:05:44;;;;;;;7.63;2.03;;;;;;;15.71;80.05;101049.31;5030688;28;20038;-73
2024/04/07 05:08:09;;;;;;;5.72;1.33;;;;;;;15.64;79.90;101058.88;5026539;28;20030;-73
2024/04/07 05:10:35;;;;;;;7.80;1.48;;;;;;;15.63;79.55;101048.59;5026226;28;20021;-73
2024/04/07 05:13:00;;;;;;;4.75;1.27;;;;;;;15.65;79.15;101057.06;5017537;28;20551;-73
2024/04/07 05:15:27;;;;;;;9.70;2.13;;;;;;;15.62;79.27;101057.47;5025381;28;20034;-73
2024/04/07 05:17:53;;;;;;;12.65;1.80;;;;;;;15.58;80.41;101059.63;5018710;28;20038;-73
2024/04/07 05:20:18;;;;;;;6.13;1.17;;;;;;;15.56;80.60;101051.16;5027274;28;20060;-74
2024/04/07 05:22:44;;;;;;;7.65;1.23;;;;;;;15.62;78.59;101054.84;5028541;28;20065;-73
2024/04/07 05:25:09;;;;;;;7.97;1.00;;;;;;;15.62;78.53;101047.00;5035953;28;20439;-74
2024/04/07 05:27:35;;;;;;;7.05;1.63;;;;;;;15.65;78.32;101054.47;5030944;28;20041;-73
2024/04/07 05:30:02;;;;;;;9.85;1.40;;;;;;;15.58;77.87;101044.75;5038772;28;20159;-73
2024/04/07 05:32:29;;;;;;;6.95;1.52;;;;;;;15.67;77.01;101032.38;5020711;28;20034;-73
2024/04/07 05:34:54;;;;;;;6.68;1.30;;;;;;;15.76;76.23;101028.72;5035364;28;20026;-73
2024/04/07 05:37:20;;;;;;;4.93;1.10;;;;;;;15.73;75.72;101033.47;5032734;28;20025;-73
2024/04/07 05:39:50;;;;;;;5.75;1.30;;;;;;;15.70;75.83;101031.19;5031496;28;20025;-73
2024/04/07 05:42:16;;;;;;;4.38;1.83;;;;;;;15.67;76.13;101021.09;5033067;28;20034;-73
2024/04/07 05:44:41;;;;;;;5.35;1.27;;;;;;;15.70;75.44;101021.56;5035560;28;20839;-73
2024/04/07 05:47:08;;;;;;;3.67;1.20;;;;;;;15.70;75.20;101024.16;5032904;28;20063;-73
2024/04/07 05:49:33;;;;;;;6.30;1.15;;;;;;;15.73;75.28;101030.84;5025365;28;20503;-73
2024/04/07 05:51:59;;;;;;;8.57;1.77;;;;;;;15.68;74.91;101041.84;5034194;28;20064;-73
2024/04/07 05:54:27;;;;;;;3.47;1.20;;;;;;;15.70;75.68;101032.00;5027304;28;20400;-74
2024/04/07 05:56:52;;;;;;;5.43;0.90;;;;;;;15.72;73.18;101039.66;5021542;28;20034;-74
2024/04/07 05:59:18;;;;;;;5.18;1.05;;;;;;;15.70;73.60;101044.28;5034270;28;20040;-73
2024/04/07 06:01:43;;;;;;;3.90;0.93;;;;;;;15.68;73.13;101051.50;5029965;28;20033;-74
2024/04/07 06:04:09;;;;;;;5.30;1.23;;;;;;;15.65;73.56;101070.97;5030413;28;20041;-73
2024/04/07 06:06:35;;;;;;;5.72;0.75;;;;;;;15.57;73.09;101076.28;5030498;28;20037;-73
2024/04/07 06:09:00;;;;;;;4.05;0.80;;;;;;;15.61;74.75;101074.91;5030938;28;20073;-73
2024/04/07 06:11:25;;;;;;;6.10;1.13;;;;;;;15.55;74.26;101083.50;5036736;28;20025;-73
2024/04/07 06:13:51;;;;;;;3.30;0.65;;;;;;;15.51;73.66;101079.63;5026928;28;20045;-73
2024/04/07 06:16:16;;;;;;;5.35;0.80;;;;;;;15.61;72.71;101071.50;5030028;28;20033;-74
2024/04/07 06:18:42;;;;;;;4.00;0.80;;;;;;;15.58;72.56;101072.69;5022724;28;20041;-73
2024/04/07 06:21:10;;;;;;;2.38;0.70;;;;;;;15.62;73.40;101079.16;5028175;28;20061;-73
2024/04/07 06:23:36;;;;;;;2.50;1.00;;;;;;;15.63;73.98;101087.81;5030557;28;20046;-73
2024/04/07 06:26:02;;;;;;;5.03;1.15;;;;;;;15.80;73.02;101088.44;5019071;28;20584;-73
2024/04/07 06:28:27;;;;;;;6.28;1.08;;;;;;;15.94;71.93;101083.19;5029349;28;20067;-73
2024/04/07 06:30:53;;;;;;;5.40;0.85;;;;;;;15.92;72.81;101090.41;5047684;28;20509;-73
2024/04/07 06:33:21;;;;;;;4.10;0.80;;;;;;;15.93;73.30;101092.00;5029351;28;20029;-74
2024/04/07 06:35:46;;;;;;;9.20;1.10;;;;;;;15.98;73.92;101096.72;5024298;28;21001;-73
2024/04/07 06:38:12;;;;;;;4.60;0.93;;;;;;;16.19;73.24;101097.75;5017413;28;20034;-73
2024/04/07 06:40:37;;;;;;;10.35;2.05;;;;;;;16.32;72.33;101101.28;5032212;28;20454;-73
2024/04/07 06:43:03;;;;;;;3.50;1.30;;;;;;;16.46;73.17;101104.03;5028102;28;20063;-73
2024/04/07 06:45:28;;;;;;;8.93;1.30;;;;;;;16.53;72.24;101108.31;5031965;28;20037;-73
2024/04/07 06:47:53;;;;;;;6.95;1.20;;;;;;;16.58;72.12;101101.75;5012205;28;20033;-74
2024/04/07 06:50:19;;;;;;;14.65;1.30;;;;;;;16.62;72.95;101110.84;5025636;28;20037;-74
2024/04/07 06:52:44;;;;;;;4.13;1.02;;;;;;;16.50;73.19;101107.88;5026639;28;20037;-73
2024/04/07 06:55:10;;;;;;;8.00;1.33;;;;;;;16.49;73.17;101103.66;5031036;28;20036;-74
2024/04/07 06:57:35;;;;;;;7.07;1.25;;;;;;;16.39;73.79;101106.59;5032952;28;20048;-74
2024/04/07 07:00:01;;;;;;;5.85;1.20;;;;;;;16.38;74.32;101106.78;5035111;28;20033;-73
2024/04/07 07:02:26;;;;;;;6.28;1.20;;;;;;;16.42;74.21;101110.63;5025880;28;20653;-74
2024/04/07 07:04:51;;;;;;;6.38;1.33;;;;;;;16.46;73.80;101117.94;5025539;28;20034;-73
2024/04/07 07:07:17;;;;;;;6.78;1.45;;;;;;;16.57;74.25;101121.03;5030370;28;20041;-73
2024/04/07 07:09:42;;;;;;;11.35;1.63;;;;;;;16.71;72.33;101109.69;5025216;28;20091;-73
2024/04/07 07:12:08;;;;;;;7.40;0.90;;;;;;;16.80;73.02;101126.06;5043285;28;20041;-73
2024/04/07 07:14:33;;;;;;;7.72;1.00;;;;;;;16.93;71.91;101113.09;5027368;28;20041;-73
2024/04/07 07:16:59;;;;;;;5.13;1.85;;;;;;;16.86;72.81;101130.59;5030727;28;20411;-73
2024/04/07 07:19:24;;;;;;;6.57;1.17;;;;;;;16.70;72.99;101119.34;5026895;28;20018;-73
2024/04/07 07:21:50;;;;;;;9.27;1.35;;;;;;;16.68;73.24;101126.56;5018820;28;20026;-74
2024/04/07 07:24:15;;;;;;;9.73;1.10;;;;;;;16.67;73.03;101134.63;5027304;28;20577;-73
2024/04/07 07:26:41;;;;;;;10.05;1.20;;;;;;;16.58;73.71;101135.78;5041768;28;20041;-73
2024/04/07 07:29:07;;;;;;;4.63;1.55;;;;;;;16.42;75.28;101132.38;5026345;28;21715;-73
2024/04/07 07:31:33;;;;;;;11.13;1.25;;;;;;;16.52;74.22;101153.03;5028700;28;20048;-73
2024/04/07 07:33:58;;;;;;;3.03;0.98;;;;;;;16.40;75.19;101155.31;5025794;28;20587;-73
2024/04/07 07:36:24;;;;;;;8.50;1.02;;;;;;;16.50;75.18;101162.84;5029842;28;20408;-74
2024/04/07 07:38:50;;;;;;;3.03;1.08;;;;;;;16.39;76.19;101171.19;5026994;28;20029;-74
2024/04/07 07:41:18;;;;;;;4.20;1.20;;;;;;;16.53;75.88;101155.44;5038619;28;20033;-73
2024/04/07 07:43:45;;;;;;;4.55;1.50;;;;;;;16.48;76.84;101157.81;5027167;28;20052;-73
2024/04/07 07:46:10;;;;;;;5.20;1.08;;;;;;;16.50;76.15;101166.31;5045418;28;20519;-73
2024/04/07 07:48:39;;;;;;;9.30;1.40;;;;;;;16.51;76.74;101181.00;5022527;28;20038;-73
2024/04/07 07:51:08;;;;;;;3.42;0.80;;;;;;;16.52;76.39;101174.78;5031050;28;20026;-73
2024/04/07 07:53:34;;;;;;;6.93;1.20;;;;;;;16.61;75.56;101174.66;5030573;28;20037;-73
2024/04/07 07:56:00;;;;;;;4.78;0.88;;;;;;;16.58;76.19;101167.19;5022897;28;20048;-73
2024/04/07 07:58:25;;;;;;;4.57;0.77;;;;;;;16.62;76.35;101181.50;5022931;28;20033;-73
2024/04/07 08:00:51;;;;;;;8.13;1.77;;;;;;;16.73;76.24;101181.81;5024505;28;20040;-73
2024/04/07 08:03:16;;;;;;;7.20;1.30;;;;;;;16.84;74.46;101183.16;5023078;28;20037;-74
2024/04/07 08:05:42;;;;;;;6.80;1.20;;;;;;;16.90;73.17;101181.59;5024941;28;20040;-73
2024/04/07 08:08:07;;;;;;;5.72;1.08;;;;;;;17.03;71.22;101192.19;5029082;28;20064;-74
2024/04/07 08:10:33;;;;;;;6.70;1.40;;;;;;;17.03;72.87;101191.38;5026693;28;20029;-74
2024/04/07 08:12:58;;;;;;;5.72;1.52;;;;;;;17.02;73.88;101187.13;5046566;28;20061;-73
2024/04/07 08:15:24;;;;;;;4.57;1.00;;;;;;;17.37;71.63;101185.38;5025132;28;20041;-74
2024/04/07 08:17:49;;;;;;;5.63;1.30;;;;;;;17.72;69.67;101169.66;5031404;28;20036;-75
2024/04/07 08:20:15;;;;;;;6.05;1.20;;;;;;;17.78;67.19;101162.81;5027995;28;20021;-74
2024/04/07 08:22:40;;;;;;;5.65;1.10;;;;;;;17.92;67.09;101166.34;5020994;28;20045;-74
2024/04/07 08:25:05;;;;;;;4.40;1.33;;;;;;;18.20;66.33;101177.56;5038995;28;20029;-74
2024/04/07 08:27:34;;;;;;;7.45;1.20;;;;;;;18.37;63.84;101180.63;5038375;28;20062;-74
2024/04/07 08:29:59;;;;;;;6.25;1.38;;;;;;;18.27;64.73;101177.56;5023220;28;20022;-74
2024/04/07 08:32:25;;;;;;;6.70;1.30;;;;;;;18.44;64.43;101199.00;5026613;28;20041;-74
2024/04/07 08:34:50;;;;;;;7.07;1.23;;;;;;;18.38;63.62;101192.72;5013785;28;20033;-74
2024/04/07 08:37:16;;;;;;;7.32;1.20;;;;;;;18.38;62.69;101191.94;5029614;28;20037;-74
2024/04/07 08:39:41;;;;;;;6.88;1.58;;;;;;;18.35;63.14;101187.91;5018589;28;20030;-74
2024/04/07 08:42:09;;;;;;;5.28;1.10;;;;;;;18.39;62.85;101190.94;5026332;28;20034;-74
2024/04/07 08:44:37;;;;;;;5.05;1.02;;;;;;;18.54;63.13;101199.44;5028947;28;20045;-73
2024/04/07 08:47:04;;;;;;;6.90;1.00;;;;;;;18.61;62.80;101197.66;5034039;28;20041;-74
2024/04/07 08:49:32;;;;;;;6.55;1.08;;;;;;;18.85;61.09;101193.69;5040416;28;20125;-74
2024/04/07 08:51:58;;;;;;;3.22;0.98;;;;;;;18.70;60.76;101189.56;5022938;28;20047;-73
2024/04/07 08:54:24;;;;;;;7.45;2.17;;;;;;;18.71;61.10;101199.09;5016730;28;20068;-74
2024/04/07 08:56:51;;;;;;;6.28;0.88;;;;;;;18.54;60.76;101188.94;5014328;28;20048;-73
2024/04/07 08:59:19;;;;;;;9.75;1.23;;;;;;;18.66;61.58;101197.84;5028293;28;20030;-74
2024/04/07 09:01:45;;;;;;;2.25;0.73;;;;;;;18.78;59.79;101197.25;5031596;28;20032;-73
2024/04/07 09:04:14;;;;;;;3.90;0.98;;;;;;;18.96;58.78;101202.75;5031888;28;20033;-74
2024/04/07 09:06:40;;;;;;;4.40;1.02;;;;;;;19.13;58.22;101205.00;5033073;28;20040;-74
2024/04/07 09:09:06;;;;;;;3.08;0.70;;;;;;;19.30;57.62;101195.66;5030038;28;20052;-74
2024/04/07 09:11:35;;;;;;;2.70;0.90;;;;;;;19.28;56.27;101196.91;5037927;28;20086;-74
2024/04/07 09:14:07;;;;;;;4.95;0.75;;;;;;;19.41;56.39;101194.25;5032356;28;20403;-73
2024/04/07 09:16:33;;;;;;;3.15;0.85;;;;;;;19.14;55.29;101196.09;5024865;28;20456;-73
2024/04/07 09:18:59;;;;;;;4.88;1.02;;;;;;;19.24;56.44;101199.91;5022659;28;20063;-74
2024/04/07 09:21:26;;;;;;;3.75;0.70;;;;;;;19.18;55.78;101197.31;5035624;28;20036;-74
2024/04/07 09:23:53;;;;;;;5.70;1.10;;;;;;;19.24;55.65;101205.19;5016767;28;20030;-74
2024/04/07 09:26:21;;;;;;;4.28;1.23;;;;;;;19.18;55.31;101213.06;5035123;28;20664;-74
2024/04/07 09:28:47;;;;;;;3.92;0.73;;;;;;;19.01;54.92;101210.03;5034937;28;20095;-75
2024/04/07 09:31:13;;;;;;;3.17;0.95;;;;;;;19.09;54.71;101201.94;5032978;28;20033;-74
2024/04/07 09:33:39;;;;;;;3.80;0.98;;;;;;;19.45;55.42;101201.50;5031407;28;20038;-74
2024/04/07 09:36:05;;;;;;;4.25;0.82;;;;;;;19.64;54.68;101209.56;5029742;28;20059;-74
2024/04/07 09:38:31;;;;;;;2.72;0.73;;;;;;;19.62;53.81;101204.50;5033590;28;20041;-74
2024/04/07 09:40:58;;;;;;;5.43;0.90;;;;;;;19.47;52.30;101211.03;5029262;28;20076;-74
2024/04/07 09:43:24;;;;;;;3.42;0.50;;;;;;;19.47;53.76;101213.66;5046236;28;20116;-73
2024/04/07 09:45:52;;;;;;;4.82;0.63;;;;;;;19.43;52.73;101215.88;5018958;28;20036;-74
2024/04/07 09:48:23;;;;;;;4.55;0.90;;;;;;;19.46;53.99;101212.84;5024540;28;20038;-73
2024/04/07 09:51:03;;;;;;;3.20;0.88;;;;;;;19.26;53.13;101204.97;5024721;28;20041;-74
2024/04/07 09:53:57;;;;;;;3.58;0.77;;;;;;;19.12;53.00;101205.97;5022749;28;20053;-74
2024/04/07 09:56:35;;;;;;;4.20;0.80;;;;;;;19.05;52.78;101211.25;5033566;28;20128;-74
2024/04/07 09:59:00;;;;;;;6.20;0.88;;;;;;;19.23;53.34;101205.38;5029911;28;20041;-74
2024/04/07 10:01:26;;;;;;;1.85;0.70;;;;;;;19.35;53.65;101211.66;5031786;28;20040;-73
2024/04/07 10:03:52;;;;;;;2.25;0.60;;;;;;;19.41;52.37;101212.66;5027069;28;20048;-74
2024/04/07 10:06:19;;;;;;;3.05;0.63;;;;;;;19.45;53.19;101214.66;5019123;28;20033;-74
2024/04/07 10:08:46;;;;;;;5.78;0.70;;;;;;;19.42;54.30;101227.41;5015887;28;20034;-74
2024/04/07 10:11:19;;;;;;;6.55;1.08;;;;;;;19.48;52.55;101215.25;5034267;28;20041;-75
2024/04/07 10:13:45;;;;;;;5.97;0.73;;;;;;;19.72;52.35;101216.41;5024374;28;20103;-74
2024/04/07 10:16:13;;;;;;;5.05;0.63;;;;;;;19.87;51.39;101211.75;5034599;28;20053;-74
2024/04/07 10:18:43;;;;;;;3.80;0.60;;;;;;;20.01;50.89;101205.44;5029592;28;20044;-74
2024/04/07 10:21:10;;;;;;;2.35;0.70;;;;;;;19.88;50.67;101210.75;5033851;28;20037;-74
2024/04/07 10:23:37;;;;;;;3.22;0.52;;;;;;;19.98;50.90;101208.47;5036093;28;20029;-74
2024/04/07 10:26:04;;;;;;;5.68;0.73;;;;;;;20.12;50.09;101201.34;5013259;28;20033;-74
2024/04/07 10:28:49;;;;;;;2.53;0.63;;;;;;;20.33;50.42;101199.44;5016074;28;20033;-74
2024/04/07 10:31:44;;;;;;;5.18;0.60;;;;;;;20.39;49.66;101202.00;5012458;28;20606;-74
2024/04/07 10:34:10;;;;;;;2.85;0.80;;;;;;;20.30;50.15;101208.53;5021362;28;20041;-74
2024/04/07 10:36:36;;;;;;;5.40;0.60;;;;;;;20.52;50.86;101201.13;5037024;28;20054;-75
2024/04/07 10:39:03;;;;;;;5.70;0.80;;;;;;;20.21;50.58;101204.53;5031355;28;20052;-74
2024/04/07 10:41:30;;;;;;;1.85;0.50;;;;;;;20.27;49.43;101193.19;5026618;28;20546;-75
2024/04/07 10:43:55;;;;;;;5.07;0.80;;;;;;;20.21;50.26;101194.00;5031112;28;20408;-74
2024/04/07 10:46:22;;;;;;;5.03;0.88;;;;;;;20.31;50.52;101194.38;5026747;28;20030;-75
2024/04/07 10:48:49;;;;;;;4.43;0.60;;;;;;;20.15;49.96;101186.94;5030532;28;20107;-74
2024/04/07 10:51:18;;;;;;;5.47;1.42;;;;;;;20.24;50.11;101190.94;5033029;28;20032;-74
2024/04/07 10:53:44;;;;;;;6.20;0.80;;;;;;;20.30;50.30;101199.84;5026573;28;20680;-74
2024/04/07 10:56:10;;;;;;;2.80;0.60;;;;;;;20.55;50.21;101194.63;5035761;28;20041;-74
2024/04/07 10:58:37;;;;;;;3.13;0.50;;;;;;;20.88;49.93;101198.91;5033751;28;20175;-74
2024/04/07 11:01:05;;;;;;;2.88;0.63;;;;;;;21.11;47.23;101191.19;5032609;28;20029;-75
2024/04/07 11:03:36;;;;;;;3.08;0.73;;;;;;;21.19;47.55;101190.09;5030059;28;20041;-74
2024/04/07 11:06:03;;;;;;;4.30;0.73;;;;;;;21.13;48.68;101189.13;5028573;28;20042;-75
2024/04/07 11:08:29;;;;;;;6.72;0.90;;;;;;;21.18;48.61;101189.28;5030418;28;20144;-74
2024/04/07 11:10:54;;;;;;;3.42;0.95;;;;;;;21.17;47.94;101187.69;5024384;28;20061;-74
2024/04/07 11:13:21;;;;;;;5.22;0.90;;;;;;;21.19;47.99;101187.47;5032601;28;20045;-74
2024/04/07 11:15:50;;;;;;;5.00;0.80;;;;;;;21.15;48.81;101181.00;5026387;28;20037;-73
2024/04/07 11:18:18;;;;;;;5.75;0.77;;;;;;;21.19;47.11;101179.53;5029064;28;20491;-75
2024/04/07 11:20:44;;;;;;;3.95;1.27;;;;;;;21.25;48.16;101193.69;5027383;28;20025;-74
2024/04/07 11:23:11;;;;;;;3.55;0.60;;;;;;;21.08;47.59;101182.91;5038820;28;20043;-74
2024/04/07 11:25:38;;;;;;;4.15;0.77;;;;;;;20.92;48.47;101185.06;5027575;28;20028;-74